sensor_id;sensor_type;location;lat;lon;timestamp;P1;durP1;ratioP1;P2;durP2;ratioP2
76900;SDS011;65859;43.020;25.096;2022-12-10T00:00:43;42.55;;;25.27;;
76900;SDS011;65859;43.020;25.096;2022-12-10T00:03:09;91.18;;;30.65;;
76900;SDS011;65859;43.020;25.096;2022-12-10T00:05:36;43.70;;;26.85;;
76900;SDS011;65859;43.020;25.096;2022-12-10T00:08:02;269.00;;;164.93;;
76900;SDS011;65859;43.020;25.096;2022-12-10T00:10:29;47.20;;;27.67;;
76900;SDS011;65859;43.020;25.096;2022-12-10T00:12:55;55.30;;;28.05;;
76900;SDS011;65859;43.020;25.096;2022-12-10T00:15:21;87.30;;;26.38;;
76900;SDS011;65859;43.020;25.096;2022-12-10T00:17:49;116.78;;;30.33;;
76900;SDS011;65859;43.020;25.096;2022-12-10T00:20:15;81.28;;;29.55;;
76900;SDS011;65859;43.020;25.096;2022-12-10T00:22:41;75.50;;;33.45;;
76900;SDS011;65859;43.020;25.096;2022-12-10T00:25:08;70.88;;;31.95;;
76900;SDS011;65859;43.020;25.096;2022-12-10T00:27:34;84.25;;;33.67;;
76900;SDS011;65859;43.020;25.096;2022-12-10T00:30:00;84.13;;;32.60;;
76900;SDS011;65859;43.020;25.096;2022-12-10T00:32:27;138.00;;;42.65;;
76900;SDS011;65859;43.020;25.096;2022-12-10T00:34:53;146.30;;;39.88;;
76900;SDS011;65859;43.020;25.096;2022-12-10T00:37:19;109.43;;;38.50;;
76900;SDS011;65859;43.020;25.096;2022-12-10T00:39:45;65.93;;;32.22;;
76900;SDS011;65859;43.020;25.096;2022-12-10T00:42:12;48.55;;;26.17;;
76900;SDS011;65859;43.020;25.096;2022-12-10T00:44:38;37.67;;;23.25;;
76900;SDS011;65859;43.020;25.096;2022-12-10T00:47:04;41.33;;;23.35;;
76900;SDS011;65859;43.020;25.096;2022-12-10T00:49:32;45.80;;;23.85;;
76900;SDS011;65859;43.020;25.096;2022-12-10T00:51:59;39.97;;;21.17;;
76900;SDS011;65859;43.020;25.096;2022-12-10T00:54:25;35.58;;;19.95;;
76900;SDS011;65859;43.020;25.096;2022-12-10T00:56:51;39.42;;;22.25;;
76900;SDS011;65859;43.020;25.096;2022-12-10T00:59:18;35.95;;;22.10;;
76900;SDS011;65859;43.020;25.096;2022-12-10T01:01:44;35.45;;;21.38;;
76900;SDS011;65859;43.020;25.096;2022-12-10T01:04:13;35.30;;;22.80;;
76900;SDS011;65859;43.020;25.096;2022-12-10T01:06:42;34.35;;;22.73;;
76900;SDS011;65859;43.020;25.096;2022-12-10T01:09:15;38.85;;;22.73;;
76900;SDS011;65859;43.020;25.096;2022-12-10T01:11:45;43.13;;;25.35;;
76900;SDS011;65859;43.020;25.096;2022-12-10T01:14:14;37.80;;;22.45;;
76900;SDS011;65859;43.020;25.096;2022-12-10T01:16:43;39.58;;;23.63;;
76900;SDS011;65859;43.020;25.096;2022-12-10T01:19:10;40.45;;;25.58;;
76900;SDS011;65859;43.020;25.096;2022-12-10T01:21:38;50.47;;;27.63;;
76900;SDS011;65859;43.020;25.096;2022-12-10T01:24:05;45.78;;;24.42;;
76900;SDS011;65859;43.020;25.096;2022-12-10T01:26:32;46.70;;;28.48;;
76900;SDS011;65859;43.020;25.096;2022-12-10T01:28:59;42.08;;;26.17;;
76900;SDS011;65859;43.020;25.096;2022-12-10T01:31:30;40.80;;;26.25;;
76900;SDS011;65859;43.020;25.096;2022-12-10T01:33:59;46.33;;;27.88;;
76900;SDS011;65859;43.020;25.096;2022-12-10T01:36:30;40.65;;;24.45;;
76900;SDS011;65859;43.020;25.096;2022-12-10T01:38:58;44.85;;;28.92;;
76900;SDS011;65859;43.020;25.096;2022-12-10T01:41:29;43.25;;;26.15;;
76900;SDS011;65859;43.020;25.096;2022-12-10T01:46:35;48.88;;;29.35;;
76900;SDS011;65859;43.020;25.096;2022-12-10T01:49:10;48.40;;;28.95;;
76900;SDS011;65859;43.020;25.096;2022-12-10T01:51:58;39.72;;;24.88;;
76900;SDS011;65859;43.020;25.096;2022-12-10T01:54:33;39.45;;;25.17;;
76900;SDS011;65859;43.020;25.096;2022-12-10T01:57:02;42.85;;;25.58;;
76900;SDS011;65859;43.020;25.096;2022-12-10T01:59:32;42.42;;;26.42;;
76900;SDS011;65859;43.020;25.096;2022-12-10T02:04:59;34.13;;;23.00;;
76900;SDS011;65859;43.020;25.096;2022-12-10T02:12:41;30.65;;;20.23;;
76900;SDS011;65859;43.020;25.096;2022-12-10T02:15:18;33.78;;;23.98;;
76900;SDS011;65859;43.020;25.096;2022-12-10T02:17:50;32.90;;;21.45;;
76900;SDS011;65859;43.020;25.096;2022-12-10T02:20:20;31.98;;;22.17;;
76900;SDS011;65859;43.020;25.096;2022-12-10T02:23:11;34.63;;;22.95;;
76900;SDS011;65859;43.020;25.096;2022-12-10T02:25:50;37.55;;;24.73;;
76900;SDS011;65859;43.020;25.096;2022-12-10T02:31:10;29.40;;;20.85;;
76900;SDS011;65859;43.020;25.096;2022-12-10T02:33:42;31.42;;;21.90;;
76900;SDS011;65859;43.020;25.096;2022-12-10T02:36:12;36.88;;;23.35;;
76900;SDS011;65859;43.020;25.096;2022-12-10T02:38:40;33.03;;;20.50;;
76900;SDS011;65859;43.020;25.096;2022-12-10T02:41:11;36.10;;;24.38;;
76900;SDS011;65859;43.020;25.096;2022-12-10T02:43:48;43.50;;;26.17;;
76900;SDS011;65859;43.020;25.096;2022-12-10T02:46:17;43.58;;;24.73;;
76900;SDS011;65859;43.020;25.096;2022-12-10T02:48:45;44.35;;;28.33;;
76900;SDS011;65859;43.020;25.096;2022-12-10T02:51:13;49.30;;;28.40;;
76900;SDS011;65859;43.020;25.096;2022-12-10T02:53:41;39.45;;;23.95;;
76900;SDS011;65859;43.020;25.096;2022-12-10T02:56:20;32.45;;;19.73;;
76900;SDS011;65859;43.020;25.096;2022-12-10T02:59:19;26.90;;;18.95;;
76900;SDS011;65859;43.020;25.096;2022-12-10T03:02:02;29.90;;;18.17;;
76900;SDS011;65859;43.020;25.096;2022-12-10T03:04:44;28.40;;;18.95;;
76900;SDS011;65859;43.020;25.096;2022-12-10T03:07:35;28.00;;;17.77;;
76900;SDS011;65859;43.020;25.096;2022-12-10T03:10:09;35.60;;;20.73;;
76900;SDS011;65859;43.020;25.096;2022-12-10T03:12:50;29.98;;;17.95;;
76900;SDS011;65859;43.020;25.096;2022-12-10T03:15:32;34.03;;;22.52;;
76900;SDS011;65859;43.020;25.096;2022-12-10T03:18:03;35.28;;;20.33;;
76900;SDS011;65859;43.020;25.096;2022-12-10T03:20:32;34.53;;;21.42;;
76900;SDS011;65859;43.020;25.096;2022-12-10T03:23:02;38.92;;;24.02;;
76900;SDS011;65859;43.020;25.096;2022-12-10T03:25:34;61.63;;;43.75;;
76900;SDS011;65859;43.020;25.096;2022-12-10T03:28:03;39.03;;;28.88;;
76900;SDS011;65859;43.020;25.096;2022-12-10T03:30:30;29.30;;;19.67;;
76900;SDS011;65859;43.020;25.096;2022-12-10T03:32:58;28.20;;;18.73;;
76900;SDS011;65859;43.020;25.096;2022-12-10T03:35:26;26.20;;;18.58;;
76900;SDS011;65859;43.020;25.096;2022-12-10T03:37:52;29.02;;;19.52;;
76900;SDS011;65859;43.020;25.096;2022-12-10T03:40:22;27.30;;;18.55;;
76900;SDS011;65859;43.020;25.096;2022-12-10T03:42:50;28.75;;;18.55;;
76900;SDS011;65859;43.020;25.096;2022-12-10T03:45:16;29.25;;;18.83;;
76900;SDS011;65859;43.020;25.096;2022-12-10T03:47:43;31.92;;;20.55;;
76900;SDS011;65859;43.020;25.096;2022-12-10T03:50:09;28.20;;;18.65;;
76900;SDS011;65859;43.020;25.096;2022-12-10T03:52:36;28.60;;;19.60;;
76900;SDS011;65859;43.020;25.096;2022-12-10T03:55:03;27.30;;;19.52;;
76900;SDS011;65859;43.020;25.096;2022-12-10T03:57:33;30.33;;;20.98;;
76900;SDS011;65859;43.020;25.096;2022-12-10T04:00:00;31.23;;;19.75;;
76900;SDS011;65859;43.020;25.096;2022-12-10T04:02:28;31.17;;;20.90;;
76900;SDS011;65859;43.020;25.096;2022-12-10T04:04:55;32.13;;;21.55;;
76900;SDS011;65859;43.020;25.096;2022-12-10T04:07:21;40.35;;;26.55;;
76900;SDS011;65859;43.020;25.096;2022-12-10T04:09:48;50.58;;;32.55;;
76900;SDS011;65859;43.020;25.096;2022-12-10T04:12:14;32.70;;;22.40;;
76900;SDS011;65859;43.020;25.096;2022-12-10T04:14:40;26.67;;;18.85;;
76900;SDS011;65859;43.020;25.096;2022-12-10T04:17:25;30.75;;;19.27;;
76900;SDS011;65859;43.020;25.096;2022-12-10T04:19:51;28.73;;;18.85;;
76900;SDS011;65859;43.020;25.096;2022-12-10T04:22:18;27.13;;;18.17;;
76900;SDS011;65859;43.020;25.096;2022-12-10T04:25:03;30.38;;;18.52;;
76900;SDS011;65859;43.020;25.096;2022-12-10T04:27:49;28.33;;;18.55;;
76900;SDS011;65859;43.020;25.096;2022-12-10T04:30:15;28.25;;;20.13;;
76900;SDS011;65859;43.020;25.096;2022-12-10T04:32:42;36.28;;;25.88;;
76900;SDS011;65859;43.020;25.096;2022-12-10T04:35:08;40.80;;;29.33;;
76900;SDS011;65859;43.020;25.096;2022-12-10T04:37:35;39.83;;;26.95;;
76900;SDS011;65859;43.020;25.096;2022-12-10T04:40:02;33.17;;;22.60;;
76900;SDS011;65859;43.020;25.096;2022-12-10T04:42:29;44.58;;;28.90;;
76900;SDS011;65859;43.020;25.096;2022-12-10T04:44:56;46.75;;;28.98;;
76900;SDS011;65859;43.020;25.096;2022-12-10T04:47:22;46.72;;;28.60;;
76900;SDS011;65859;43.020;25.096;2022-12-10T04:49:49;46.25;;;29.85;;
76900;SDS011;65859;43.020;25.096;2022-12-10T04:52:15;46.13;;;27.95;;
76900;SDS011;65859;43.020;25.096;2022-12-10T04:54:42;41.83;;;25.77;;
76900;SDS011;65859;43.020;25.096;2022-12-10T04:57:09;37.20;;;25.77;;
76900;SDS011;65859;43.020;25.096;2022-12-10T04:59:37;55.20;;;34.20;;
76900;SDS011;65859;43.020;25.096;2022-12-10T05:02:04;38.38;;;24.55;;
76900;SDS011;65859;43.020;25.096;2022-12-10T05:04:31;41.67;;;24.83;;
76900;SDS011;65859;43.020;25.096;2022-12-10T05:06:57;33.13;;;23.50;;
76900;SDS011;65859;43.020;25.096;2022-12-10T05:09:23;35.53;;;21.63;;
76900;SDS011;65859;43.020;25.096;2022-12-10T05:11:50;29.45;;;20.42;;
76900;SDS011;65859;43.020;25.096;2022-12-10T05:14:16;38.92;;;25.52;;
76900;SDS011;65859;43.020;25.096;2022-12-10T05:16:42;34.75;;;23.73;;
76900;SDS011;65859;43.020;25.096;2022-12-10T05:19:09;41.00;;;26.50;;
76900;SDS011;65859;43.020;25.096;2022-12-10T05:21:36;38.28;;;27.52;;
76900;SDS011;65859;43.020;25.096;2022-12-10T05:24:21;41.05;;;28.00;;
76900;SDS011;65859;43.020;25.096;2022-12-10T05:26:47;46.70;;;30.95;;
76900;SDS011;65859;43.020;25.096;2022-12-10T05:29:16;39.88;;;27.88;;
76900;SDS011;65859;43.020;25.096;2022-12-10T05:31:43;43.63;;;27.77;;
76900;SDS011;65859;43.020;25.096;2022-12-10T05:34:11;41.42;;;29.10;;
76900;SDS011;65859;43.020;25.096;2022-12-10T05:36:37;38.60;;;25.10;;
76900;SDS011;65859;43.020;25.096;2022-12-10T05:39:03;36.03;;;26.25;;
76900;SDS011;65859;43.020;25.096;2022-12-10T05:41:31;38.45;;;26.17;;
76900;SDS011;65859;43.020;25.096;2022-12-10T05:44:01;58.88;;;36.60;;
76900;SDS011;65859;43.020;25.096;2022-12-10T05:46:28;48.47;;;29.13;;
76900;SDS011;65859;43.020;25.096;2022-12-10T05:48:56;36.72;;;27.23;;
76900;SDS011;65859;43.020;25.096;2022-12-10T05:51:26;42.17;;;28.20;;
76900;SDS011;65859;43.020;25.096;2022-12-10T05:53:54;51.80;;;30.92;;
76900;SDS011;65859;43.020;25.096;2022-12-10T05:56:22;56.17;;;36.03;;
76900;SDS011;65859;43.020;25.096;2022-12-10T05:58:51;61.30;;;39.22;;
76900;SDS011;65859;43.020;25.096;2022-12-10T06:01:20;60.13;;;38.60;;
76900;SDS011;65859;43.020;25.096;2022-12-10T06:03:50;61.70;;;40.00;;
76900;SDS011;65859;43.020;25.096;2022-12-10T06:06:20;106.13;;;66.32;;
76900;SDS011;65859;43.020;25.096;2022-12-10T06:08:48;78.82;;;47.08;;
76900;SDS011;65859;43.020;25.096;2022-12-10T06:11:15;57.15;;;36.75;;
76900;SDS011;65859;43.020;25.096;2022-12-10T06:13:41;54.03;;;34.58;;
76900;SDS011;65859;43.020;25.096;2022-12-10T06:16:09;58.05;;;37.63;;
76900;SDS011;65859;43.020;25.096;2022-12-10T06:18:37;54.08;;;36.22;;
76900;SDS011;65859;43.020;25.096;2022-12-10T06:21:04;64.20;;;41.20;;
76900;SDS011;65859;43.020;25.096;2022-12-10T06:23:33;64.93;;;42.45;;
76900;SDS011;65859;43.020;25.096;2022-12-10T06:26:04;71.40;;;45.97;;
76900;SDS011;65859;43.020;25.096;2022-12-10T06:28:35;60.55;;;38.47;;
76900;SDS011;65859;43.020;25.096;2022-12-10T06:31:03;52.70;;;34.33;;
76900;SDS011;65859;43.020;25.096;2022-12-10T06:33:30;47.75;;;31.95;;
76900;SDS011;65859;43.020;25.096;2022-12-10T06:35:58;43.00;;;31.15;;
76900;SDS011;65859;43.020;25.096;2022-12-10T06:38:24;42.70;;;29.13;;
76900;SDS011;65859;43.020;25.096;2022-12-10T06:40:51;41.70;;;27.48;;
76900;SDS011;65859;43.020;25.096;2022-12-10T06:43:17;42.88;;;28.65;;
76900;SDS011;65859;43.020;25.096;2022-12-10T06:45:44;61.55;;;40.92;;
76900;SDS011;65859;43.020;25.096;2022-12-10T06:48:10;61.53;;;43.97;;
76900;SDS011;65859;43.020;25.096;2022-12-10T06:50:36;56.40;;;38.38;;
76900;SDS011;65859;43.020;25.096;2022-12-10T06:53:03;52.33;;;36.10;;
76900;SDS011;65859;43.020;25.096;2022-12-10T06:55:29;45.50;;;31.05;;
76900;SDS011;65859;43.020;25.096;2022-12-10T06:57:55;48.47;;;33.70;;
76900;SDS011;65859;43.020;25.096;2022-12-10T07:00:22;75.75;;;52.15;;
76900;SDS011;65859;43.020;25.096;2022-12-10T07:02:48;55.20;;;42.42;;
76900;SDS011;65859;43.020;25.096;2022-12-10T07:05:15;55.88;;;43.88;;
76900;SDS011;65859;43.020;25.096;2022-12-10T07:07:42;45.75;;;35.00;;
76900;SDS011;65859;43.020;25.096;2022-12-10T07:10:09;43.30;;;31.60;;
76900;SDS011;65859;43.020;25.096;2022-12-10T07:12:35;43.42;;;33.80;;
76900;SDS011;65859;43.020;25.096;2022-12-10T07:15:02;52.47;;;43.20;;
76900;SDS011;65859;43.020;25.096;2022-12-10T07:17:29;39.40;;;32.25;;
76900;SDS011;65859;43.020;25.096;2022-12-10T07:19:55;44.92;;;38.55;;
76900;SDS011;65859;43.020;25.096;2022-12-10T07:22:21;41.78;;;33.35;;
76900;SDS011;65859;43.020;25.096;2022-12-10T07:24:48;41.47;;;32.30;;
76900;SDS011;65859;43.020;25.096;2022-12-10T07:27:15;39.30;;;31.08;;
76900;SDS011;65859;43.020;25.096;2022-12-10T07:29:43;46.78;;;31.17;;
76900;SDS011;65859;43.020;25.096;2022-12-10T07:32:09;43.22;;;30.75;;
76900;SDS011;65859;43.020;25.096;2022-12-10T07:34:36;43.72;;;33.15;;
76900;SDS011;65859;43.020;25.096;2022-12-10T07:37:02;50.70;;;36.67;;
76900;SDS011;65859;43.020;25.096;2022-12-10T07:39:30;54.88;;;41.97;;
76900;SDS011;65859;43.020;25.096;2022-12-10T07:41:56;76.63;;;56.47;;
76900;SDS011;65859;43.020;25.096;2022-12-10T07:44:23;64.85;;;48.42;;
76900;SDS011;65859;43.020;25.096;2022-12-10T07:46:51;75.80;;;52.08;;
76900;SDS011;65859;43.020;25.096;2022-12-10T07:49:19;72.03;;;52.28;;
76900;SDS011;65859;43.020;25.096;2022-12-10T07:51:46;68.65;;;48.53;;
76900;SDS011;65859;43.020;25.096;2022-12-10T07:54:16;77.25;;;50.90;;
76900;SDS011;65859;43.020;25.096;2022-12-10T07:56:43;69.10;;;53.17;;
76900;SDS011;65859;43.020;25.096;2022-12-10T07:59:09;68.07;;;53.33;;
76900;SDS011;65859;43.020;25.096;2022-12-10T08:01:36;58.30;;;48.72;;
76900;SDS011;65859;43.020;25.096;2022-12-10T08:04:02;52.70;;;42.97;;
76900;SDS011;65859;43.020;25.096;2022-12-10T08:06:29;49.70;;;39.60;;
76900;SDS011;65859;43.020;25.096;2022-12-10T08:08:55;47.22;;;41.75;;
76900;SDS011;65859;43.020;25.096;2022-12-10T08:11:24;45.20;;;38.00;;
76900;SDS011;65859;43.020;25.096;2022-12-10T08:13:51;47.50;;;38.40;;
76900;SDS011;65859;43.020;25.096;2022-12-10T08:16:19;49.55;;;40.40;;
76900;SDS011;65859;43.020;25.096;2022-12-10T08:18:54;53.95;;;41.58;;
76900;SDS011;65859;43.020;25.096;2022-12-10T08:21:23;60.00;;;46.65;;
76900;SDS011;65859;43.020;25.096;2022-12-10T08:23:51;59.65;;;45.92;;
76900;SDS011;65859;43.020;25.096;2022-12-10T08:26:22;64.68;;;48.60;;
76900;SDS011;65859;43.020;25.096;2022-12-10T08:28:51;61.63;;;47.15;;
76900;SDS011;65859;43.020;25.096;2022-12-10T08:31:19;65.88;;;48.90;;
76900;SDS011;65859;43.020;25.096;2022-12-10T08:33:46;59.08;;;47.80;;
76900;SDS011;65859;43.020;25.096;2022-12-10T08:36:13;61.88;;;49.08;;
76900;SDS011;65859;43.020;25.096;2022-12-10T08:38:41;87.63;;;61.20;;
76900;SDS011;65859;43.020;25.096;2022-12-10T08:41:09;62.05;;;46.22;;
76900;SDS011;65859;43.020;25.096;2022-12-10T08:43:40;77.25;;;57.15;;
76900;SDS011;65859;43.020;25.096;2022-12-10T08:46:07;129.43;;;95.25;;
76900;SDS011;65859;43.020;25.096;2022-12-10T08:48:34;68.05;;;55.45;;
76900;SDS011;65859;43.020;25.096;2022-12-10T08:51:01;89.03;;;79.50;;
76900;SDS011;65859;43.020;25.096;2022-12-10T08:53:29;62.70;;;52.15;;
76900;SDS011;65859;43.020;25.096;2022-12-10T08:55:55;66.18;;;51.88;;
76900;SDS011;65859;43.020;25.096;2022-12-10T08:58:22;51.65;;;45.03;;
76900;SDS011;65859;43.020;25.096;2022-12-10T09:00:48;46.95;;;37.50;;
76900;SDS011;65859;43.020;25.096;2022-12-10T09:03:15;53.58;;;43.67;;
76900;SDS011;65859;43.020;25.096;2022-12-10T09:05:42;49.03;;;39.58;;
76900;SDS011;65859;43.020;25.096;2022-12-10T09:08:09;45.78;;;36.83;;
76900;SDS011;65859;43.020;25.096;2022-12-10T09:10:36;44.90;;;36.10;;
76900;SDS011;65859;43.020;25.096;2022-12-10T09:13:03;50.72;;;37.47;;
76900;SDS011;65859;43.020;25.096;2022-12-10T09:15:31;50.45;;;44.63;;
76900;SDS011;65859;43.020;25.096;2022-12-10T09:17:57;37.83;;;28.48;;
76900;SDS011;65859;43.020;25.096;2022-12-10T09:20:24;35.05;;;26.77;;
76900;SDS011;65859;43.020;25.096;2022-12-10T09:22:51;43.65;;;39.03;;
76900;SDS011;65859;43.020;25.096;2022-12-10T09:25:17;28.75;;;23.02;;
76900;SDS011;65859;43.020;25.096;2022-12-10T09:27:46;35.95;;;27.98;;
76900;SDS011;65859;43.020;25.096;2022-12-10T09:30:13;40.85;;;29.23;;
76900;SDS011;65859;43.020;25.096;2022-12-10T09:32:40;22.33;;;18.00;;
76900;SDS011;65859;43.020;25.096;2022-12-10T09:35:07;28.95;;;22.30;;
76900;SDS011;65859;43.020;25.096;2022-12-10T09:37:33;24.08;;;19.48;;
76900;SDS011;65859;43.020;25.096;2022-12-10T09:39:59;22.15;;;15.88;;
76900;SDS011;65859;43.020;25.096;2022-12-10T09:47:34;36.85;;;25.45;;
76900;SDS011;65859;43.020;25.096;2022-12-10T09:50:12;42.65;;;34.22;;
76900;SDS011;65859;43.020;25.096;2022-12-10T09:52:47;35.42;;;24.15;;
76900;SDS011;65859;43.020;25.096;2022-12-10T09:55:17;25.52;;;20.95;;
76900;SDS011;65859;43.020;25.096;2022-12-10T09:57:50;31.33;;;27.48;;
76900;SDS011;65859;43.020;25.096;2022-12-10T10:00:38;40.78;;;30.58;;
76900;SDS011;65859;43.020;25.096;2022-12-10T10:03:06;33.05;;;27.60;;
76900;SDS011;65859;43.020;25.096;2022-12-10T10:05:41;26.45;;;18.48;;
76900;SDS011;65859;43.020;25.096;2022-12-10T10:08:17;36.50;;;20.80;;
76900;SDS011;65859;43.020;25.096;2022-12-10T10:10:52;33.28;;;28.73;;
76900;SDS011;65859;43.020;25.096;2022-12-10T10:13:34;22.45;;;17.88;;
76900;SDS011;65859;43.020;25.096;2022-12-10T10:19:15;20.60;;;17.23;;
76900;SDS011;65859;43.020;25.096;2022-12-10T10:22:02;28.15;;;22.83;;
76900;SDS011;65859;43.020;25.096;2022-12-10T10:24:41;42.28;;;34.63;;
76900;SDS011;65859;43.020;25.096;2022-12-10T10:27:14;46.88;;;39.08;;
76900;SDS011;65859;43.020;25.096;2022-12-10T10:29:46;32.05;;;27.23;;
76900;SDS011;65859;43.020;25.096;2022-12-10T10:34:46;39.55;;;32.88;;
76900;SDS011;65859;43.020;25.096;2022-12-10T10:37:22;23.35;;;19.75;;
76900;SDS011;65859;43.020;25.096;2022-12-10T10:40:23;17.65;;;13.98;;
76900;SDS011;65859;43.020;25.096;2022-12-10T10:42:55;20.83;;;16.95;;
76900;SDS011;65859;43.020;25.096;2022-12-10T10:45:39;12.90;;;9.15;;
76900;SDS011;65859;43.020;25.096;2022-12-10T10:48:18;21.25;;;17.33;;
76900;SDS011;65859;43.020;25.096;2022-12-10T10:50:52;29.30;;;18.83;;
76900;SDS011;65859;43.020;25.096;2022-12-10T10:55:50;27.60;;;22.63;;
76900;SDS011;65859;43.020;25.096;2022-12-10T10:58:19;23.50;;;18.67;;
76900;SDS011;65859;43.020;25.096;2022-12-10T11:01:03;23.67;;;16.45;;
76900;SDS011;65859;43.020;25.096;2022-12-10T11:03:34;20.23;;;14.57;;
76900;SDS011;65859;43.020;25.096;2022-12-10T11:06:04;25.63;;;20.77;;
76900;SDS011;65859;43.020;25.096;2022-12-10T11:08:33;28.58;;;24.17;;
76900;SDS011;65859;43.020;25.096;2022-12-10T11:11:05;58.72;;;45.88;;
76900;SDS011;65859;43.020;25.096;2022-12-10T11:13:38;55.17;;;34.08;;
76900;SDS011;65859;43.020;25.096;2022-12-10T11:16:22;89.10;;;51.75;;
76900;SDS011;65859;43.020;25.096;2022-12-10T11:21:28;65.03;;;41.80;;
76900;SDS011;65859;43.020;25.096;2022-12-10T11:23:56;45.03;;;34.22;;
76900;SDS011;65859;43.020;25.096;2022-12-10T11:26:33;44.80;;;32.33;;
76900;SDS011;65859;43.020;25.096;2022-12-10T11:38:01;29.95;;;20.30;;
76900;SDS011;65859;43.020;25.096;2022-12-10T11:43:30;27.33;;;16.00;;
76900;SDS011;65859;43.020;25.096;2022-12-10T12:00:16;33.78;;;22.63;;
76900;SDS011;65859;43.020;25.096;2022-12-10T12:05:45;31.98;;;22.55;;
76900;SDS011;65859;43.020;25.096;2022-12-10T12:16:26;32.92;;;20.77;;
76900;SDS011;65859;43.020;25.096;2022-12-10T12:19:23;31.42;;;18.63;;
76900;SDS011;65859;43.020;25.096;2022-12-10T12:22:00;47.60;;;31.75;;
76900;SDS011;65859;43.020;25.096;2022-12-10T12:24:36;58.88;;;42.75;;
76900;SDS011;65859;43.020;25.096;2022-12-10T12:27:17;48.25;;;33.08;;
76900;SDS011;65859;43.020;25.096;2022-12-10T12:29:58;37.28;;;24.85;;
76900;SDS011;65859;43.020;25.096;2022-12-10T12:32:44;34.58;;;23.55;;
76900;SDS011;65859;43.020;25.096;2022-12-10T12:35:20;29.73;;;20.65;;
76900;SDS011;65859;43.020;25.096;2022-12-10T12:38:19;38.58;;;23.10;;
76900;SDS011;65859;43.020;25.096;2022-12-10T12:41:03;42.38;;;28.92;;
76900;SDS011;65859;43.020;25.096;2022-12-10T12:43:42;39.22;;;27.55;;
76900;SDS011;65859;43.020;25.096;2022-12-10T12:46:24;37.10;;;26.67;;
76900;SDS011;65859;43.020;25.096;2022-12-10T12:49:09;36.80;;;25.20;;
76900;SDS011;65859;43.020;25.096;2022-12-10T12:54:27;49.55;;;34.17;;
76900;SDS011;65859;43.020;25.096;2022-12-10T13:04:44;43.03;;;26.42;;
76900;SDS011;65859;43.020;25.096;2022-12-10T13:09:50;40.15;;;25.30;;
76900;SDS011;65859;43.020;25.096;2022-12-10T13:15:38;38.00;;;27.05;;
76900;SDS011;65859;43.020;25.096;2022-12-10T13:23:29;82.22;;;51.65;;
76900;SDS011;65859;43.020;25.096;2022-12-10T13:25:56;76.07;;;49.10;;
76900;SDS011;65859;43.020;25.096;2022-12-10T13:38:57;48.88;;;30.17;;
76900;SDS011;65859;43.020;25.096;2022-12-10T13:41:30;65.97;;;36.88;;
76900;SDS011;65859;43.020;25.096;2022-12-10T14:00:58;78.85;;;50.22;;
76900;SDS011;65859;43.020;25.096;2022-12-10T14:06:25;112.05;;;74.43;;
76900;SDS011;65859;43.020;25.096;2022-12-10T14:11:57;103.70;;;63.92;;
76900;SDS011;65859;43.020;25.096;2022-12-10T14:14:37;207.73;;;115.88;;
76900;SDS011;65859;43.020;25.096;2022-12-10T14:17:18;175.45;;;117.15;;
76900;SDS011;65859;43.020;25.096;2022-12-10T14:19:46;183.00;;;122.57;;
76900;SDS011;65859;43.020;25.096;2022-12-10T14:22:18;166.23;;;117.97;;
76900;SDS011;65859;43.020;25.096;2022-12-10T14:25:00;202.98;;;146.15;;
76900;SDS011;65859;43.020;25.096;2022-12-10T14:27:29;198.43;;;146.38;;
76900;SDS011;65859;43.020;25.096;2022-12-10T14:30:00;190.90;;;127.88;;
76900;SDS011;65859;43.020;25.096;2022-12-10T14:32:34;233.90;;;165.07;;
76900;SDS011;65859;43.020;25.096;2022-12-10T14:37:49;149.05;;;119.65;;
76900;SDS011;65859;43.020;25.096;2022-12-10T14:40:19;138.40;;;107.53;;
76900;SDS011;65859;43.020;25.096;2022-12-10T14:42:50;128.68;;;96.38;;
76900;SDS011;65859;43.020;25.096;2022-12-10T14:45:22;255.30;;;175.80;;
76900;SDS011;65859;43.020;25.096;2022-12-10T14:47:50;292.08;;;192.38;;
76900;SDS011;65859;43.020;25.096;2022-12-10T14:50:20;159.38;;;111.10;;
76900;SDS011;65859;43.020;25.096;2022-12-10T14:52:51;160.63;;;116.50;;
76900;SDS011;65859;43.020;25.096;2022-12-10T14:55:19;101.10;;;69.47;;
76900;SDS011;65859;43.020;25.096;2022-12-10T14:57:52;89.45;;;63.25;;
76900;SDS011;65859;43.020;25.096;2022-12-10T15:00:22;81.68;;;57.28;;
76900;SDS011;65859;43.020;25.096;2022-12-10T15:02:53;97.50;;;60.75;;
76900;SDS011;65859;43.020;25.096;2022-12-10T15:05:32;87.80;;;56.78;;
76900;SDS011;65859;43.020;25.096;2022-12-10T15:08:00;113.22;;;80.28;;
76900;SDS011;65859;43.020;25.096;2022-12-10T15:13:06;104.93;;;69.35;;
76900;SDS011;65859;43.020;25.096;2022-12-10T15:15:42;99.55;;;63.90;;
76900;SDS011;65859;43.020;25.096;2022-12-10T15:18:16;199.00;;;139.98;;
76900;SDS011;65859;43.020;25.096;2022-12-10T15:20:59;278.38;;;178.00;;
76900;SDS011;65859;43.020;25.096;2022-12-10T15:23:49;196.65;;;130.32;;
76900;SDS011;65859;43.020;25.096;2022-12-10T15:26:32;221.43;;;140.57;;
76900;SDS011;65859;43.020;25.096;2022-12-10T15:31:48;131.93;;;92.88;;
76900;SDS011;65859;43.020;25.096;2022-12-10T15:34:21;198.80;;;143.05;;
76900;SDS011;65859;43.020;25.096;2022-12-10T15:36:51;501.17;;;308.02;;
76900;SDS011;65859;43.020;25.096;2022-12-10T15:39:21;340.45;;;219.00;;
76900;SDS011;65859;43.020;25.096;2022-12-10T15:42:05;263.52;;;166.20;;
76900;SDS011;65859;43.020;25.096;2022-12-10T15:44:37;269.58;;;174.77;;
76900;SDS011;65859;43.020;25.096;2022-12-10T15:52:14;192.30;;;117.82;;
76900;SDS011;65859;43.020;25.096;2022-12-10T15:54:43;189.48;;;121.43;;
76900;SDS011;65859;43.020;25.096;2022-12-10T15:57:13;197.57;;;127.25;;
76900;SDS011;65859;43.020;25.096;2022-12-10T15:59:42;193.68;;;121.80;;
76900;SDS011;65859;43.020;25.096;2022-12-10T16:05:14;163.68;;;112.32;;
76900;SDS011;65859;43.020;25.096;2022-12-10T16:07:41;131.68;;;88.75;;
76900;SDS011;65859;43.020;25.096;2022-12-10T16:10:09;122.20;;;80.65;;
76900;SDS011;65859;43.020;25.096;2022-12-10T16:12:36;128.88;;;83.35;;
76900;SDS011;65859;43.020;25.096;2022-12-10T16:15:04;147.02;;;98.93;;
76900;SDS011;65859;43.020;25.096;2022-12-10T16:17:33;155.32;;;101.65;;
76900;SDS011;65859;43.020;25.096;2022-12-10T16:20:00;172.68;;;112.82;;
76900;SDS011;65859;43.020;25.096;2022-12-10T16:22:52;215.90;;;152.52;;
76900;SDS011;65859;43.020;25.096;2022-12-10T16:25:20;150.60;;;107.05;;
76900;SDS011;65859;43.020;25.096;2022-12-10T16:27:47;116.13;;;80.32;;
76900;SDS011;65859;43.020;25.096;2022-12-10T16:30:21;66.03;;;48.17;;
76900;SDS011;65859;43.020;25.096;2022-12-10T16:32:50;75.25;;;49.50;;
76900;SDS011;65859;43.020;25.096;2022-12-10T16:35:18;75.97;;;51.90;;
76900;SDS011;65859;43.020;25.096;2022-12-10T16:37:45;115.60;;;101.00;;
76900;SDS011;65859;43.020;25.096;2022-12-10T16:40:22;127.70;;;105.20;;
76900;SDS011;65859;43.020;25.096;2022-12-10T16:42:50;225.70;;;151.45;;